Time;durP1;ratioP1;P1;durP2;ratioP2;P2;SDS_P1;SDS_P2;PMS_P1;PMS_P2;Temp;Humidity;BMP_temperature;BMP_pressure;BME280_temperature;BME280_humidity;BME280_pressure;Samples;Min_cycle;Max_cycle;Signal;HPM_P1;HPM_P2
2022/04/20 00:01:12;;;;;;;14.52;9.32;;;;;;;8.42;70.61;101111.63;5055029;28;20078;-44
2022/04/20 00:03:38;;;;;;;14.07;11.05;;;;;;;8.48;70.71;101103.78;5055332;28;20082;-44
2022/04/20 00:06:05;;;;;;;18.92;11.02;;;;;;;8.52;69.62;101096.25;5073574;28;20373;-42
2022/04/20 00:08:32;;;;;;;15.32;10.10;;;;;;;8.69;69.67;101105.16;5054960;28;20045;-43
2022/04/20 00:10:59;;;;;;;20.08;11.05;;;;;;;8.80;68.70;101107.50;5055684;28;20107;-45
2022/04/20 00:13:25;;;;;;;15.82;10.60;;;;;;;8.83;68.40;101101.00;5073183;28;20039;-43
2022/04/20 00:15:51;;;;;;;18.75;11.38;;;;;;;8.89;68.67;101103.00;5060584;28;20028;-44
2022/04/20 00:18:17;;;;;;;14.10;9.98;;;;;;;8.94;68.30;101111.38;5079362;28;20059;-46
2022/04/20 00:20:43;;;;;;;14.05;11.13;;;;;;;8.74;69.05;101084.06;5077669;28;20437;-45
2022/04/20 00:23:08;;;;;;;11.32;9.05;;;;;;;8.80;69.16;101101.31;5074830;28;20028;-46
2022/04/20 00:25:34;;;;;;;22.88;10.95;;;;;;;8.76;68.80;101094.63;5055938;28;20380;-45
2022/04/20 00:28:00;;;;;;;15.80;10.75;;;;;;;8.82;69.62;101099.31;5074412;28;20367;-44
2022/04/20 00:30:26;;;;;;;15.48;10.57;;;;;;;8.80;69.33;101077.22;5055856;28;20100;-43
2022/04/20 00:32:52;;;;;;;20.00;10.93;;;;;;;8.95;68.83;101098.81;5073434;28;20103;-43
2022/04/20 00:35:17;;;;;;;13.18;9.57;;;;;;;9.00;68.65;101097.31;5073096;28;20041;-43
2022/04/20 00:37:44;;;;;;;16.65;10.52;;;;;;;8.99;69.01;101094.78;5073456;28;20354;-43
2022/04/20 00:40:11;;;;;;;13.00;8.93;;;;;;;9.08;68.17;101109.84;5055330;28;20338;-42
2022/04/20 00:42:40;;;;;;;19.55;11.18;;;;;;;9.04;69.37;101106.66;5072626;28;20040;-42
2022/04/20 00:45:08;;;;;;;13.02;8.32;;;;;;;9.07;68.18;101108.19;5055208;28;20033;-42
2022/04/20 00:47:37;;;;;;;13.20;8.88;;;;;;;9.05;69.25;101099.50;5072505;28;20033;-42
2022/04/20 00:50:04;;;;;;;18.25;11.75;;;;;;;9.07;69.16;101103.66;5073234;28;20036;-42
2022/04/20 00:52:30;;;;;;;17.17;12.50;;;;;;;9.04;69.34;101095.13;5073564;28;20029;-44
2022/04/20 00:54:55;;;;;;;20.13;13.27;;;;;;;8.96;70.58;101095.13;5073569;28;20461;-43
2022/04/20 00:57:21;;;;;;;22.45;14.48;;;;;;;8.87;70.74;101086.25;5073439;28;20516;-42
2022/04/20 00:59:49;;;;;;;26.00;14.45;;;;;;;8.87;70.82;101094.28;5074022;28;20059;-43
2022/04/20 01:02:15;;;;;;;25.90;14.75;;;;;;;8.89;71.10;101103.81;5073597;28;20044;-43
2022/04/20 01:04:41;;;;;;;27.90;15.18;;;;;;;8.82;71.83;101086.78;5074038;28;20353;-43
2022/04/20 01:07:13;;;;;;;25.20;15.32;;;;;;;8.85;71.29;101101.66;5073030;28;20520;-42
2022/04/20 01:09:40;;;;;;;29.33;16.98;;;;;;;8.72;71.88;101078.88;5073241;28;20039;-42
2022/04/20 01:12:07;;;;;;;33.97;17.55;;;;;;;8.78;72.43;101100.66;5055019;28;20032;-43
2022/04/20 01:14:34;;;;;;;31.23;17.83;;;;;;;8.83;72.22;101095.63;5073071;28;20029;-42
2022/04/20 01:16:59;;;;;;;30.20;17.05;;;;;;;8.71;72.81;101082.56;5055354;28;20028;-43
2022/04/20 01:19:41;;;;;;;35.05;18.13;;;;;;;8.69;72.79;101095.28;5055487;28;20463;-44
2022/04/20 01:22:08;;;;;;;30.38;18.30;;;;;;;8.61;73.29;101075.69;5078275;28;20037;-44
2022/04/20 01:24:37;;;;;;;35.28;19.52;;;;;;;8.69;73.58;101091.75;5080085;28;20107;-42
2022/04/20 01:27:04;;;;;;;33.03;17.98;;;;;;;8.77;72.49;101089.09;5078636;28;20044;-42
2022/04/20 01:29:31;;;;;;;37.08;18.15;;;;;;;8.78;72.74;101088.09;5043937;28;20476;-45
2022/04/20 01:31:57;;;;;;;34.33;20.52;;;;;;;8.51;73.94;101073.19;5061240;28;20499;-42
2022/04/20 01:34:23;;;;;;;37.97;19.25;;;;;;;8.53;74.11;101076.53;5077705;28;20028;-43
2022/04/20 01:36:49;;;;;;;36.70;19.17;;;;;;;8.71;73.12;101095.09;5076312;28;20029;-42
2022/04/20 01:39:15;;;;;;;37.47;21.45;;;;;;;8.65;73.81;101063.66;5058332;28;20082;-42
2022/04/20 01:41:42;;;;;;;32.95;20.35;;;;;;;8.70;73.72;101083.56;5076676;28;20395;-44
2022/04/20 01:44:08;;;;;;;32.25;19.88;;;;;;;8.74;73.81;101077.88;5076205;28;20021;-42
2022/04/20 01:46:33;;;;;;;34.33;20.50;;;;;;;8.65;74.08;101077.88;5076437;28;20499;-42
2022/04/20 01:49:00;;;;;;;32.17;19.13;;;;;;;8.62;73.29;101078.22;5076200;28;20033;-42
2022/04/20 01:54:12;;;;;;;34.90;21.35;;;;;;;8.55;74.39;101065.66;5061354;28;20032;-43
2022/04/20 01:56:38;;;;;;;35.60;21.02;;;;;;;8.60;74.19;101074.00;5076661;28;20421;-43
2022/04/20 01:59:03;;;;;;;33.70;20.08;;;;;;;8.67;73.97;101088.41;5041706;28;20016;-45
2022/04/20 02:04:15;;;;;;;39.00;21.25;;;;;;;8.71;73.62;101092.44;5061504;28;20369;-44
2022/04/20 02:06:40;;;;;;;36.25;21.00;;;;;;;8.67;74.02;101083.91;5041253;28;20059;-44
2022/04/20 02:09:06;;;;;;;36.15;21.10;;;;;;;8.68;73.86;101088.25;5058346;28;20194;-44
2022/04/20 02:11:32;;;;;;;38.97;21.13;;;;;;;8.67;73.79;101081.25;5076087;28;20058;-45
2022/04/20 02:13:59;;;;;;;31.75;19.15;;;;;;;8.51;74.11;101059.78;5058386;28;20032;-44
2022/04/20 02:16:25;;;;;;;37.72;21.35;;;;;;;8.58;74.46;101087.59;5058793;28;20074;-43
2022/04/20 02:18:51;;;;;;;33.10;21.35;;;;;;;8.57;74.45;101079.72;5075650;28;20544;-43
2022/04/20 02:21:17;;;;;;;41.85;20.85;;;;;;;8.48;74.95;101078.84;5075534;28;20040;-43
2022/04/20 02:23:43;;;;;;;36.00;20.70;;;;;;;8.52;75.66;101080.19;5075800;28;20028;-43
2022/04/20 02:26:09;;;;;;;35.15;20.48;;;;;;;8.53;75.13;101076.53;5075845;28;20036;-43
2022/04/20 02:28:34;;;;;;;38.92;20.77;;;;;;;8.44;74.41;101053.44;5075352;28;20108;-43
2022/04/20 02:31:00;;;;;;;33.88;21.52;;;;;;;8.50;75.13;101069.66;5057605;28;20036;-45
2022/04/20 02:33:26;;;;;;;32.45;20.73;;;;;;;8.60;74.64;101074.00;5075453;28;20384;-43
2022/04/20 02:35:52;;;;;;;30.80;19.95;;;;;;;8.63;74.33;101079.03;5057406;28;20051;-43
2022/04/20 02:38:19;;;;;;;35.83;20.70;;;;;;;8.61;74.37;101075.69;5075599;28;20028;-43
2022/04/20 02:40:45;;;;;;;35.38;20.35;;;;;;;8.59;74.50;101073.19;5075379;28;20033;-45
2022/04/20 02:43:11;;;;;;;33.35;20.17;;;;;;;8.60;74.86;101068.66;5075920;28;20036;-45
2022/04/20 02:45:38;;;;;;;30.70;20.52;;;;;;;8.51;74.55;101065.16;5078677;28;20111;-45
2022/04/20 02:48:04;;;;;;;34.20;20.05;;;;;;;8.61;74.30;101078.38;5079038;28;20029;-43
2022/04/20 02:50:30;;;;;;;33.45;21.73;;;;;;;8.52;74.65;101062.31;5059720;28;20113;-47
2022/04/20 02:52:57;;;;;;;34.63;22.35;;;;;;;8.57;74.83;101072.50;5076030;28;20029;-44
2022/04/20 02:55:23;;;;;;;37.30;20.80;;;;;;;8.38;74.15;101043.34;5075283;28;20116;-43
2022/04/20 02:57:49;;;;;;;38.22;21.65;;;;;;;8.47;75.11;101071.84;5075253;28;20024;-43
2022/04/20 03:00:16;;;;;;;38.88;20.35;;;;;;;8.37;74.63;101063.06;5074911;28;20052;-43
2022/04/20 03:02:42;;;;;;;32.05;19.85;;;;;;;8.25;75.39;101060.72;5075674;28;20032;-45
2022/04/20 03:05:08;;;;;;;33.13;21.00;;;;;;;8.11;76.38;101047.97;5074918;28;20044;-45
2022/04/20 03:07:34;;;;;;;34.55;21.48;;;;;;;8.23;76.69;101068.06;5074556;28;20110;-43
2022/04/20 03:10:00;;;;;;;40.55;22.95;;;;;;;8.23;76.17;101054.69;5057611;28;20036;-43
2022/04/20 03:12:26;;;;;;;35.97;21.95;;;;;;;8.37;76.06;101063.06;5057006;28;20025;-44
2022/04/20 03:14:54;;;;;;;38.83;20.92;;;;;;;8.30;75.10;101058.41;5074894;28;20032;-43
2022/04/20 03:17:22;;;;;;;39.75;22.35;;;;;;;8.24;76.11;101061.69;5074616;28;20136;-43
2022/04/20 03:19:47;;;;;;;37.67;22.27;;;;;;;8.14;76.57;101036.94;5074596;28;20461;-43
2022/04/20 03:22:13;;;;;;;33.53;21.50;;;;;;;8.29;75.40;101056.72;5056758;28;20039;-42
2022/04/20 03:24:39;;;;;;;38.30;22.55;;;;;;;8.30;75.58;101057.53;5074640;28;20538;-43
2022/04/20 03:27:06;;;;;;;43.08;23.02;;;;;;;8.07;77.32;101066.19;5074258;28;20468;-45
2022/04/20 03:29:31;;;;;;;34.70;20.08;;;;;;;8.11;76.48;101061.34;5074000;28;20398;-43
2022/04/20 03:31:57;;;;;;;35.17;21.67;;;;;;;7.96;76.51;101021.00;5074226;28;20050;-44
2022/04/20 03:34:24;;;;;;;35.13;20.45;;;;;;;8.26;76.16;101058.88;5074580;28;20035;-43
2022/04/20 03:36:49;;;;;;;38.58;21.58;;;;;;;8.24;76.30;101064.38;5056088;28;20063;-43
2022/04/20 03:39:15;;;;;;;38.35;23.50;;;;;;;8.16;76.25;101068.91;5056933;28;20053;-43
2022/04/20 03:41:41;;;;;;;36.97;23.67;;;;;;;8.04;77.08;101063.84;5058491;28;20389;-43
2022/04/20 03:44:08;;;;;;;38.60;21.83;;;;;;;8.04;77.07;101063.00;5074567;28;20108;-43
2022/04/20 03:46:34;;;;;;;49.75;23.52;;;;;;;8.06;76.51;101063.66;5076024;28;20051;-43
2022/04/20 03:49:00;;;;;;;39.22;22.35;;;;;;;8.04;77.61;101071.00;5058435;28;20017;-45
2022/04/20 03:51:26;;;;;;;43.83;23.13;;;;;;;8.00;77.20;101061.63;5075140;28;20044;-44
2022/04/20 03:53:52;;;;;;;37.95;23.40;;;;;;;8.13;77.19;101067.34;5023805;28;20090;-43
2022/04/20 03:56:18;;;;;;;32.85;20.40;;;;;;;8.12;76.81;101061.19;5075488;28;20020;-43
2022/04/20 03:58:43;;;;;;;44.58;24.23;;;;;;;8.14;76.09;101061.03;5076254;28;20021;-43
2022/04/20 04:01:09;;;;;;;43.03;24.05;;;;;;;8.03;77.79;101061.31;5075923;28;20037;-43
2022/04/20 04:03:35;;;;;;;45.50;22.55;;;;;;;8.04;77.47;101054.97;5075476;28;20025;-43
2022/04/20 04:06:01;;;;;;;40.63;23.48;;;;;;;8.10;77.61;101057.00;5075670;28;20020;-43
2022/04/20 04:08:27;;;;;;;39.05;22.50;;;;;;;8.03;76.58;101053.31;5057513;28;20051;-43
2022/04/20 04:10:52;;;;;;;49.47;24.25;;;;;;;7.95;77.32;101035.41;5074652;28;20119;-44
2022/04/20 04:13:19;;;;;;;41.13;22.48;;;;;;;7.78;77.54;101026.44;5074740;28;20037;-42
2022/04/20 04:15:44;;;;;;;42.47;23.58;;;;;;;7.87;77.84;101041.53;5074767;28;20111;-43
2022/04/20 04:18:10;;;;;;;37.83;23.23;;;;;;;7.99;77.85;101057.31;5074187;28;20031;-44
2022/04/20 04:20:36;;;;;;;43.00;24.15;;;;;;;7.99;77.21;101052.78;5056303;28;20032;-43
2022/04/20 04:23:02;;;;;;;42.33;22.98;;;;;;;7.95;77.33;101054.94;5074638;28;20431;-43
2022/04/20 04:25:29;;;;;;;46.45;23.33;;;;;;;7.85;77.87;101054.22;5074041;28;20027;-44
2022/04/20 04:27:55;;;;;;;45.03;24.58;;;;;;;7.84;78.01;101055.25;5073857;28;20028;-44
2022/04/20 04:30:21;;;;;;;43.38;23.85;;;;;;;7.72;78.02;101043.16;5073312;28;20037;-44
2022/04/20 04:32:47;;;;;;;40.65;24.17;;;;;;;7.82;77.75;101059.91;5073629;28;20082;-43
2022/04/20 04:35:13;;;;;;;42.85;22.85;;;;;;;7.80;77.02;101053.91;5056010;28;20025;-44
2022/04/20 04:37:39;;;;;;;39.65;21.58;;;;;;;7.70;77.07;101045.97;5055863;28;20456;-43
2022/04/20 04:40:06;;;;;;;38.00;21.38;;;;;;;7.59;77.15;101040.91;5056109;28;20029;-44
2022/04/20 04:42:32;;;;;;;35.60;22.45;;;;;;;7.63;77.22;101052.13;5074068;28;20035;-43
2022/04/20 04:48:36;;;;;;;50.15;23.60;;;;;;;7.57;76.95;101056.28;5074537;28;20024;-43
2022/04/20 04:50:29;;;;;;;37.10;20.60;;;;;;;7.25;78.25;101041.75;5059032;28;20372;-42
2022/04/20 04:52:55;;;;;;;37.60;22.90;;;;;;;7.16;78.30;101035.50;5055797;28;20025;-42
2022/04/20 04:55:21;;;;;;;40.58;22.13;;;;;;;7.31;77.74;101056.31;5073229;28;20037;-42
2022/04/20 04:57:46;;;;;;;49.03;21.67;;;;;;;7.13;78.30;101040.31;5075730;28;20156;-42
2022/04/20 05:00:13;;;;;;;31.92;18.02;;;;;;;7.22;77.46;101058.06;5077388;28;20119;-44
2022/04/20 05:02:39;;;;;;;32.17;21.20;;;;;;;7.04;78.45;101050.13;5078270;28;20031;-45
2022/04/20 05:05:05;;;;;;;37.83;21.90;;;;;;;6.93;79.35;101064.56;5078697;28;20025;-43
2022/04/20 05:07:31;;;;;;;41.83;21.30;;;;;;;6.84;79.78;101068.16;5061268;28;20382;-43
2022/04/20 05:09:57;;;;;;;37.72;21.65;;;;;;;6.77;78.63;101051.91;5078203;28;20051;-42
2022/04/20 05:12:22;;;;;;;37.97;21.17;;;;;;;6.90;79.54;101069.38;5078242;28;20036;-43
2022/04/20 05:14:48;;;;;;;34.78;20.52;;;;;;;6.88;79.27;101066.03;5077732;28;20035;-42
2022/04/20 05:17:14;;;;;;;31.20;18.17;;;;;;;6.93;78.99;101069.91;5077526;28;20024;-43
2022/04/20 05:19:40;;;;;;;41.40;20.63;;;;;;;6.96;79.35;101069.59;5061679;28;20040;-44
2022/04/20 05:22:06;;;;;;;31.88;19.17;;;;;;;7.00;78.93;101067.44;5077031;28;20025;-42
2022/04/20 05:24:32;;;;;;;41.25;20.15;;;;;;;7.00;77.87;101071.94;5059383;28;20124;-45
2022/04/20 05:26:58;;;;;;;37.65;19.33;;;;;;;6.87;78.21;101064.31;5077080;28;20036;-42
2022/04/20 05:29:24;;;;;;;37.55;19.15;;;;;;;6.96;79.13;101085.63;5058614;28;20020;-42
2022/04/20 05:31:52;;;;;;;32.63;17.73;;;;;;;6.96;79.48;101079.41;5026572;28;20086;-44
2022/04/20 05:34:18;;;;;;;35.08;17.17;;;;;;;6.97;79.05;101070.44;5079514;28;20028;-43
2022/04/20 05:42:18;;;;;;;34.05;16.15;;;;;;;6.97;78.95;101062.41;5062080;28;20166;-45
2022/04/20 05:44:45;;;;;;;32.80;16.95;;;;;;;7.04;78.54;101078.63;5058943;28;20033;-44
2022/04/20 05:47:11;;;;;;;26.13;15.93;;;;;;;6.98;77.94;101064.06;5025589;28;20028;-47
2022/04/20 05:49:36;;;;;;;25.70;15.70;;;;;;;7.18;77.76;101083.44;5058343;28;20212;-44
2022/04/20 05:52:02;;;;;;;31.00;14.50;;;;;;;7.29;76.15;101083.16;5058688;28;20036;-42
2022/04/20 05:54:28;;;;;;;33.55;13.90;;;;;;;7.18;77.23;101073.56;5076390;28;20415;-43
2022/04/20 05:56:54;;;;;;;24.77;14.50;;;;;;;7.18;77.04;101083.44;5058350;28;20388;-42
2022/04/20 05:59:19;;;;;;;33.80;14.43;;;;;;;7.16;77.64;101075.56;5076171;28;20024;-42
2022/04/20 06:01:45;;;;;;;25.40;13.00;;;;;;;7.35;77.40;101087.03;5041820;28;20501;-42
2022/04/20 06:04:11;;;;;;;30.63;13.45;;;;;;;7.44;76.41;101093.28;5076045;28;20039;-42
2022/04/20 06:06:37;;;;;;;26.27;13.38;;;;;;;7.43;76.31;101096.94;5075915;28;20068;-42
2022/04/20 06:09:03;;;;;;;26.30;12.35;;;;;;;7.45;76.14;101093.13;5057330;28;20479;-42
2022/04/20 06:11:30;;;;;;;32.35;13.38;;;;;;;7.56;76.19;101098.22;5076046;28;20032;-44
2022/04/20 06:13:57;;;;;;;24.45;11.75;;;;;;;7.63;75.08;101089.56;5076105;28;20334;-42
2022/04/20 06:16:23;;;;;;;24.35;11.85;;;;;;;7.46;76.08;101097.47;5076114;28;20035;-42
2022/04/20 06:18:49;;;;;;;26.25;12.15;;;;;;;7.53;76.48;101098.53;5058280;28;20377;-43
2022/04/20 06:21:15;;;;;;;27.92;11.88;;;;;;;7.56;76.43;101103.56;5058010;28;20465;-45
2022/04/20 06:23:41;;;;;;;21.95;11.02;;;;;;;7.58;75.13;101092.72;5076385;28;20077;-43
2022/04/20 06:26:07;;;;;;;21.70;11.80;;;;;;;7.64;76.19;101093.91;5075719;28;20036;-43
2022/04/20 06:28:32;;;;;;;21.58;10.88;;;;;;;7.79;75.76;101084.28;5075857;28;20429;-45
2022/04/20 06:30:58;;;;;;;22.58;10.15;;;;;;;7.86;75.49;101082.66;5075590;28;20120;-45
2022/04/20 06:33:24;;;;;;;23.02;11.07;;;;;;;7.78;74.27;101061.22;5075685;28;20115;-44
2022/04/20 06:35:51;;;;;;;25.63;10.65;;;;;;;7.86;74.24;101089.84;5075400;28;20082;-46
2022/04/20 06:38:17;;;;;;;23.10;10.45;;;;;;;7.82;75.29;101086.66;5075343;28;20066;-45
2022/04/20 06:40:43;;;;;;;17.33;9.18;;;;;;;7.91;74.32;101085.69;5075109;28;20033;-43
2022/04/20 06:43:09;;;;;;;19.42;9.60;;;;;;;7.88;75.07;101079.81;5057244;28;20050;-45
2022/04/20 06:45:35;;;;;;;23.92;8.88;;;;;;;7.88;74.83;101085.19;5057985;28;20437;-44
2022/04/20 06:48:01;;;;;;;22.60;9.23;;;;;;;7.97;74.78;101089.56;5074802;28;20078;-44
2022/04/20 06:50:27;;;;;;;12.68;7.63;;;;;;;8.06;74.96;101083.25;5057083;28;20107;-44
2022/04/20 06:58:31;;;;;;;17.80;8.27;;;;;;;8.33;73.68;101074.09;5059797;28;20094;-43
2022/04/20 07:00:58;;;;;;;17.85;7.47;;;;;;;8.39;73.48;101093.19;5057164;28;20032;-44
2022/04/20 07:03:24;;;;;;;22.55;8.32;;;;;;;8.47;73.31;101078.03;5074542;28;20035;-43
2022/04/20 07:05:49;;;;;;;22.73;7.95;;;;;;;8.67;73.36;101086.59;5057324;28;20025;-42
2022/04/20 07:08:16;;;;;;;15.05;7.70;;;;;;;8.81;72.45;101081.56;5056571;28;20047;-42
2022/04/20 07:10:41;;;;;;;19.13;7.18;;;;;;;8.82;71.56;101062.66;5056735;28;20035;-42
2022/04/20 07:13:08;;;;;;;19.70;7.57;;;;;;;8.99;71.59;101076.03;5074511;28;20029;-43
2022/04/20 07:15:33;;;;;;;18.25;7.38;;;;;;;9.08;71.14;101067.84;5074342;28;20024;-43
2022/04/20 07:17:59;;;;;;;17.63;7.00;;;;;;;9.16;71.01;101067.00;5074543;28;20518;-43
2022/04/20 07:20:25;;;;;;;14.35;6.97;;;;;;;9.14;70.35;101081.53;5073990;28;20064;-45
2022/04/20 07:22:53;;;;;;;9.95;6.43;;;;;;;9.07;70.70;101084.91;5075557;28;20042;-45
2022/04/20 07:25:19;;;;;;;22.90;7.43;;;;;;;9.04;70.86;101090.59;5058453;28;20055;-44
2022/04/20 07:27:48;;;;;;;13.13;6.38;;;;;;;9.09;70.62;101085.56;5077318;28;20020;-45
2022/04/20 07:30:15;;;;;;;17.00;6.65;;;;;;;9.10;70.45;101086.41;5058133;28;20029;-43
2022/04/20 07:32:41;;;;;;;23.02;7.45;;;;;;;9.01;70.46;101074.88;5074957;28;20031;-42
2022/04/20 07:35:07;;;;;;;25.45;6.88;;;;;;;9.23;70.60;101077.84;5074798;28;20028;-43
2022/04/20 07:37:33;;;;;;;16.52;6.88;;;;;;;9.20;70.96;101072.84;5056740;28;20350;-43
2022/04/20 07:39:59;;;;;;;14.77;6.85;;;;;;;9.45;69.94;101079.84;5074077;28;20029;-43
2022/04/20 07:42:25;;;;;;;15.80;7.15;;;;;;;9.48;70.03;101057.22;5074251;28;20035;-44
2022/04/20 07:44:54;;;;;;;16.55;6.10;;;;;;;9.67;69.81;101066.69;5074168;28;20032;-43
2022/04/20 07:47:22;;;;;;;17.13;6.80;;;;;;;9.74;69.63;101058.81;5039351;28;20099;-44
2022/04/20 07:52:40;;;;;;;14.35;6.15;;;;;;;10.14;68.60;101054.25;5045089;28;20028;-43
2022/04/20 07:55:11;;;;;;;18.83;6.95;;;;;;;10.34;67.99;101058.19;5056033;28;20134;-42
2022/04/20 07:57:37;;;;;;;17.55;6.38;;;;;;;10.40;67.59;101051.25;5074053;28;20086;-44
2022/04/20 08:00:05;;;;;;;19.38;7.03;;;;;;;10.56;67.75;101056.53;5074145;28;20020;-44
2022/04/20 08:02:31;;;;;;;19.45;6.57;;;;;;;10.36;67.18;101047.28;5055778;28;20056;-44
2022/04/20 08:04:57;;;;;;;16.58;6.32;;;;;;;10.59;67.15;101041.94;5074536;28;20079;-44
2022/04/20 08:07:23;;;;;;;14.20;6.38;;;;;;;10.81;66.59;101064.44;5073192;28;20500;-43
2022/04/20 08:09:49;;;;;;;13.35;6.15;;;;;;;11.02;66.05;101063.72;5073505;28;20040;-44
2022/04/20 08:12:15;;;;;;;15.15;6.25;;;;;;;11.02;66.06;101059.19;5073674;28;20032;-44
2022/04/20 08:14:41;;;;;;;21.98;6.55;;;;;;;10.91;65.75;101054.25;5073963;28;20477;-45
2022/04/20 08:17:07;;;;;;;16.55;6.97;;;;;;;11.04;66.05;101061.69;5073611;28;20508;-47
2022/04/20 08:19:33;;;;;;;17.42;6.60;;;;;;;11.26;65.45;101051.91;5055292;28;20030;-43
2022/04/20 08:21:59;;;;;;;21.17;7.03;;;;;;;11.35;65.79;101053.50;5073199;28;20031;-44
2022/04/20 08:24:25;;;;;;;16.95;6.28;;;;;;;11.18;65.37;101054.66;5073463;28;20035;-46
2022/04/20 08:26:50;;;;;;;10.00;6.40;;;;;;;11.12;65.13;101040.09;5055462;28;20111;-44
2022/04/20 08:29:16;;;;;;;14.35;7.35;;;;;;;11.24;65.78;101057.47;5055144;28;20108;-44
2022/04/20 08:31:42;;;;;;;13.52;6.40;;;;;;;11.37;65.09;101045.25;5058419;28;20033;-46
2022/04/20 08:34:08;;;;;;;18.92;6.63;;;;;;;11.56;64.85;101050.06;5059347;28;20029;-46
2022/04/20 08:36:33;;;;;;;14.65;5.78;;;;;;;11.65;64.30;101056.19;5077458;28;20052;-45
2022/04/20 08:39:00;;;;;;;12.20;6.25;;;;;;;11.60;64.54;101056.72;5059042;28;20358;-44
2022/04/20 08:41:26;;;;;;;18.85;6.60;;;;;;;11.70;64.02;101056.47;5076950;28;20528;-44
2022/04/20 08:43:53;;;;;;;15.05;6.50;;;;;;;12.01;63.57;101050.88;5042484;28;20024;-44
2022/04/20 08:46:19;;;;;;;14.35;6.05;;;;;;;12.31;62.99;101066.13;5077174;28;20425;-45
2022/04/20 08:48:45;;;;;;;14.10;6.93;;;;;;;12.29;62.31;101050.16;5076629;28;20159;-43
2022/04/20 08:51:11;;;;;;;13.65;6.20;;;;;;;12.52;62.29;101052.69;5077152;28;20040;-44
2022/04/20 08:53:37;;;;;;;13.82;6.13;;;;;;;12.70;61.22;101052.25;5076986;28;20101;-45
2022/04/20 08:58:50;;;;;;;14.52;6.50;;;;;;;12.87;60.31;101035.78;5061673;28;20024;-44
2022/04/20 09:01:17;;;;;;;14.82;6.25;;;;;;;13.08;59.47;101034.94;5076835;28;20074;-45
2022/04/20 09:03:46;;;;;;;15.10;6.03;;;;;;;13.41;60.19;101047.81;5058843;28;20040;-44
2022/04/20 09:06:14;;;;;;;16.55;5.68;;;;;;;13.59;58.81;101026.56;5076834;28;20024;-45
2022/04/20 09:08:40;;;;;;;11.52;6.28;;;;;;;14.16;57.13;101039.88;5037898;28;20489;-43
2022/04/20 09:11:07;;;;;;;20.48;5.38;;;;;;;15.07;54.42;101042.09;5036875;28;20033;-43
2022/04/20 09:13:35;;;;;;;15.45;5.70;;;;;;;14.74;55.21;101044.81;5036926;28;20121;-46
2022/04/20 09:16:10;;;;;;;14.35;5.68;;;;;;;15.61;54.46;101046.38;5037166;28;20424;-42
2022/04/20 09:18:37;;;;;;;14.73;5.28;;;;;;;16.13;53.09;101048.31;5035648;28;20033;-42
2022/04/20 09:21:07;;;;;;;12.52;5.93;;;;;;;16.92;49.72;101044.28;5035544;28;20030;-43
2022/04/20 09:23:34;;;;;;;10.77;4.88;;;;;;;17.78;48.42;101028.16;5037526;28;20032;-42
2022/04/20 09:26:08;;;;;;;12.13;4.90;;;;;;;18.69;46.35;101014.56;5035750;28;20033;-43
2022/04/20 09:28:36;;;;;;;11.02;5.13;;;;;;;18.92;44.75;101024.66;5036611;28;20036;-43
2022/04/20 09:31:03;;;;;;;10.15;4.63;;;;;;;18.69;45.92;101026.25;5036787;28;20060;-48
2022/04/20 09:33:49;;;;;;;8.80;4.38;;;;;;;19.22;44.65;101016.38;5037469;28;20032;-44
2022/04/20 09:36:35;;;;;;;10.00;4.93;;;;;;;19.94;45.52;101014.38;5036948;28;20029;-44
2022/04/20 09:39:03;;;;;;;11.15;4.68;;;;;;;20.85;43.10;100989.81;5036944;28;20068;-43
2022/04/20 09:41:29;;;;;;;12.15;4.93;;;;;;;21.87;40.13;100993.13;5038153;28;20025;-42
2022/04/20 09:44:11;;;;;;;8.40;4.20;;;;;;;22.76;37.02;100991.81;5036098;28;20167;-43
2022/04/20 09:50:00;;;;;;;10.15;4.85;;;;;;;22.39;36.25;100965.22;5036136;28;20029;-44
2022/04/20 09:52:44;;;;;;;7.60;4.63;;;;;;;22.90;36.62;100992.19;5036437;28;20402;-43
2022/04/20 09:55:14;;;;;;;9.15;4.53;;;;;;;22.84;37.89;100987.75;5018567;28;20037;-43
2022/04/20 09:57:39;;;;;;;9.88;5.10;;;;;;;21.85;37.94;100984.34;5035555;28;20080;-43
2022/04/20 10:00:15;;;;;;;9.40;4.65;;;;;;;22.45;35.97;100981.69;5036220;28;20489;-43
2022/04/20 10:02:56;;;;;;;16.13;5.03;;;;;;;22.89;34.30;100985.06;5036250;28;20036;-44
2022/04/20 10:05:23;;;;;;;7.43;5.22;;;;;;;23.33;35.49;100984.00;5034933;28;20114;-43
2022/04/20 10:07:51;;;;;;;11.25;4.25;;;;;;;24.01;36.32;100975.75;5056704;28;20048;-43
2022/04/20 10:10:17;;;;;;;10.80;4.50;;;;;;;24.58;35.79;100960.19;5076470;28;20238;-43
2022/04/20 10:12:45;;;;;;;7.97;4.80;;;;;;;24.91;33.44;100979.94;5057777;28;20024;-43
2022/04/20 10:17:57;;;;;;;15.07;4.95;;;;;;;25.08;33.18;100966.69;5060525;28;20162;-44
2022/04/20 10:20:26;;;;;;;10.45;4.70;;;;;;;26.00;30.58;100951.78;5075306;28;20154;-44
2022/04/20 10:22:54;;;;;;;9.77;3.95;;;;;;;26.59;32.22;100951.84;5041447;28;20028;-43
2022/04/20 10:25:20;;;;;;;8.25;4.70;;;;;;;26.61;30.61;100958.75;5075073;28;20037;-44
2022/04/20 10:28:06;;;;;;;12.07;4.80;;;;;;;26.66;27.68;100938.59;5075191;28;20035;-42
2022/04/20 10:30:45;;;;;;;9.05;4.68;;;;;;;26.40;30.05;100946.25;5058731;28;20041;-44
2022/04/20 10:36:04;;;;;;;12.48;4.13;;;;;;;27.52;27.37;100944.25;5046439;28;20111;-44
2022/04/20 10:38:31;;;;;;;9.85;4.80;;;;;;;26.79;28.97;100937.09;5074654;28;20020;-43
2022/04/20 10:41:02;;;;;;;7.72;4.80;;;;;;;27.21;27.66;100936.34;5057577;28;20032;-46
2022/04/20 10:43:29;;;;;;;5.47;4.30;;;;;;;27.92;28.69;100933.81;5074860;28;20036;-45
2022/04/20 10:46:17;;;;;;;9.15;4.38;;;;;;;28.13;25.16;100933.47;5057208;28;20119;-44
2022/04/20 10:48:47;;;;;;;7.65;4.47;;;;;;;27.81;27.77;100938.63;5043304;28;20028;-44
2022/04/20 10:51:16;;;;;;;6.63;4.55;;;;;;;27.33;27.60;100935.94;5074591;28;20119;-44
2022/04/20 10:53:44;;;;;;;6.60;4.32;;;;;;;27.87;27.71;100917.28;5056600;28;20024;-43
2022/04/20 10:56:10;;;;;;;6.15;4.63;;;;;;;26.70;29.16;100927.81;5056545;28;20031;-45
2022/04/20 10:58:36;;;;;;;6.80;4.70;;;;;;;27.15;29.14;100917.38;5074748;28;20046;-42
2022/04/20 11:01:17;;;;;;;10.18;5.35;;;;;;;26.93;25.00;100910.50;5074356;28;20476;-43
2022/04/20 11:04:05;;;;;;;7.35;3.80;;;;;;;27.64;26.67;100907.97;5056689;28;20056;-43
2022/04/20 11:07:15;;;;;;;6.47;4.45;;;;;;;27.73;23.98;100905.34;5060451;28;20032;-46
2022/04/20 11:09:49;;;;;;;5.38;4.20;;;;;;;27.40;25.32;100899.75;5048833;28;20036;-43
2022/04/20 11:21:11;;;;;;;5.63;4.32;;;;;;;26.96;21.53;100887.84;5045200;28;20035;-43
2022/04/20 11:24:03;;;;;;;6.00;4.43;;;;;;;26.91;22.60;100862.25;5055967;28;20028;-45
2022/04/20 11:26:34;;;;;;;4.88;3.85;;;;;;;27.90;23.75;100869.78;5073782;28;20463;-45
2022/04/20 11:29:11;;;;;;;11.75;4.40;;;;;;;28.25;23.21;100872.25;5074042;28;20028;-43
2022/04/20 11:31:40;;;;;;;8.27;4.57;;;;;;;28.32;23.51;100884.53;5074236;28;20388;-44
2022/04/20 11:34:06;;;;;;;7.05;3.90;;;;;;;26.82;24.56;100884.97;5074148;28;20028;-45
2022/04/20 11:36:33;;;;;;;4.63;4.03;;;;;;;27.07;25.61;100866.47;5074105;28;20036;-43
2022/04/20 11:39:01;;;;;;;5.85;5.20;;;;;;;26.82;24.29;100860.16;5074839;28;20016;-43
2022/04/20 11:41:27;;;;;;;4.80;4.30;;;;;;;26.64;25.15;100870.00;5073728;28;20028;-48
2022/04/20 11:43:53;;;;;;;7.40;4.45;;;;;;;27.23;23.80;100884.47;5073690;28;20032;-43
2022/04/20 11:46:20;;;;;;;6.25;4.65;;;;;;;26.45;22.81;100875.41;5073849;28;20034;-43
2022/04/20 11:48:56;;;;;;;7.32;4.40;;;;;;;27.50;22.18;100872.00;5055949;28;20028;-46
2022/04/20 11:51:27;;;;;;;4.90;4.40;;;;;;;28.31;20.68;100871.84;5073918;28;20024;-44
2022/04/20 11:53:54;;;;;;;7.70;4.25;;;;;;;28.53;21.47;100849.09;5073882;28;20035;-44
2022/04/20 11:56:40;;;;;;;4.45;3.88;;;;;;;27.80;20.59;100854.19;5074002;28;20078;-46
2022/04/20 11:59:08;;;;;;;5.28;3.90;;;;;;;29.14;22.65;100858.16;5059454;28;20476;-47
2022/04/20 12:01:37;;;;;;;6.30;4.00;;;;;;;28.28;22.71;100850.34;5074670;28;20035;-45
2022/04/20 12:04:20;;;;;;;7.10;3.60;;;;;;;29.48;21.50;100848.53;5057339;28;20028;-43